MAPA DE AEROPUERTO

INFORMACIÓN METAR y TAF

METAR FOR GCXO
ADDS - METARS form results

(1538 UTC 07 May 2021)
Data provider http://aviationweather.gov/metar/data/
 
METAR text: GCXO 071530Z 30010KT 260V340 9999 FEW011 SCT018 19/13 Q1019 NOSIG
Conditions at: GCXO (TENERIFE/LOS ROD, ES) observed 1530 UTC 07 May 2021
Temperature: 19.0°C (66°F)
Dewpoint: 13.0°C (55°F) [RH = 68%]
Pressure (altimeter): 30.09 inches Hg (1019.0 mb)
Winds: from the WNW (300 degrees) at 12 MPH (10 knots; 5.1 m/s)
Visibility: 6 or more miles (10+ km)
Ceiling: at least 12,000 feet AGL
Clouds: few clouds at 1100 feet AGL
scattered clouds at 1800 feet AGL
Weather: no significant weather observed at this time

METAR text: GCXO 071500Z 29011KT 250V320 9999 FEW011 SCT018 20/14 Q1020 NOSIG
Conditions at: GCXO (TENERIFE/LOS ROD, ES) observed 1500 UTC 07 May 2021
Temperature: 20.0°C (68°F)
Dewpoint: 14.0°C (57°F) [RH = 68%]
Pressure (altimeter): 30.12 inches Hg (1020.0 mb)
Winds: from the WNW (290 degrees) at 13 MPH (11 knots; 5.7 m/s)
Visibility: 6 or more miles (10+ km)
Ceiling: at least 12,000 feet AGL
Clouds: few clouds at 1100 feet AGL
scattered clouds at 1800 feet AGL
Weather: no significant weather observed at this time

Forecast for: GCXO (TENERIFE/LOS ROD, ES)
Text: TAF GCXO 071400Z 0715/0815 30011KT 9999 SCT020 TX20/0814Z TN13/0806Z
Forecast period: 1500 UTC 07 May 2021 to 1500 UTC 08 May 2021
Forecast type: FROM: standard forecast or significant change
Winds: from the WNW (300 degrees) at 13 MPH (11 knots; 5.7 m/s)
Visibility: 6 or more miles (10+ km)
Ceiling: at least 12,000 feet AGL
Clouds: scattered clouds at 2000 feet AGL
Weather: no significant weather forecast for this period
Text: PROB30
Forecast period: 1500 to 1700 UTC 07 May 2021
Forecast type: TEMPORARY: The following changes expected for less than half the time period
Winds: from the ESE (110 degrees) at 6 MPH (5 knots; 2.6 m/s)
Visibility: missing
Ceiling: unknown
Clouds: missing
Weather: no significant weather forecast for this period
Text: TEMPO 0715/0717 11005KT
Forecast period: 2000 UTC 07 May 2021 to 0900 UTC 08 May 2021
Forecast type: TEMPORARY: The following changes expected for less than half the time period
Visibility: missing
Ceiling: 700 feet AGL
Clouds: broken clouds at 700 feet AGL
Weather: no significant weather forecast for this period